sensor_id;sensor_type;location;lat;lon;timestamp;P1;durP1;ratioP1;P2;durP2;ratioP2
11653;SDS011;5883;48.818;9.114;2024-01-25T00:01:11;19.38;;;4.32;;
11653;SDS011;5883;48.818;9.114;2024-01-25T00:03:56;15.55;;;4.05;;
11653;SDS011;5883;48.818;9.114;2024-01-25T00:06:41;12.43;;;3.58;;
11653;SDS011;5883;48.818;9.114;2024-01-25T00:09:26;15.30;;;3.88;;
11653;SDS011;5883;48.818;9.114;2024-01-25T00:12:11;21.02;;;4.32;;
11653;SDS011;5883;48.818;9.114;2024-01-25T00:14:57;19.88;;;4.00;;
11653;SDS011;5883;48.818;9.114;2024-01-25T00:17:43;13.77;;;3.42;;
11653;SDS011;5883;48.818;9.114;2024-01-25T00:20:28;18.83;;;4.00;;
11653;SDS011;5883;48.818;9.114;2024-01-25T00:23:13;17.60;;;4.22;;
11653;SDS011;5883;48.818;9.114;2024-01-25T00:25:58;21.90;;;4.50;;
11653;SDS011;5883;48.818;9.114;2024-01-25T00:28:44;24.08;;;4.45;;
11653;SDS011;5883;48.818;9.114;2024-01-25T00:31:28;20.77;;;4.00;;
11653;SDS011;5883;48.818;9.114;2024-01-25T00:34:15;16.20;;;4.13;;
11653;SDS011;5883;48.818;9.114;2024-01-25T00:37:00;13.80;;;4.00;;
11653;SDS011;5883;48.818;9.114;2024-01-25T00:39:45;17.38;;;3.90;;
11653;SDS011;5883;48.818;9.114;2024-01-25T00:42:32;16.08;;;4.07;;
11653;SDS011;5883;48.818;9.114;2024-01-25T00:45:22;15.02;;;3.75;;
11653;SDS011;5883;48.818;9.114;2024-01-25T00:48:08;19.15;;;4.05;;
11653;SDS011;5883;48.818;9.114;2024-01-25T00:50:55;15.15;;;4.32;;
11653;SDS011;5883;48.818;9.114;2024-01-25T00:53:41;20.33;;;4.10;;
11653;SDS011;5883;48.818;9.114;2024-01-25T00:56:26;20.33;;;3.95;;
11653;SDS011;5883;48.818;9.114;2024-01-25T00:59:11;23.15;;;4.05;;
11653;SDS011;5883;48.818;9.114;2024-01-25T01:01:57;15.05;;;3.85;;
11653;SDS011;5883;48.818;9.114;2024-01-25T01:04:43;11.85;;;3.53;;
11653;SDS011;5883;48.818;9.114;2024-01-25T01:07:30;14.48;;;3.97;;
11653;SDS011;5883;48.818;9.114;2024-01-25T01:10:15;12.60;;;4.00;;
11653;SDS011;5883;48.818;9.114;2024-01-25T01:13:00;13.88;;;3.78;;
11653;SDS011;5883;48.818;9.114;2024-01-25T01:15:45;17.65;;;3.50;;
11653;SDS011;5883;48.818;9.114;2024-01-25T01:18:30;15.52;;;4.45;;
11653;SDS011;5883;48.818;9.114;2024-01-25T01:21:15;13.77;;;3.90;;
11653;SDS011;5883;48.818;9.114;2024-01-25T01:24:01;19.83;;;4.68;;
11653;SDS011;5883;48.818;9.114;2024-01-25T01:26:46;22.38;;;4.50;;
11653;SDS011;5883;48.818;9.114;2024-01-25T01:29:32;21.45;;;3.85;;
11653;SDS011;5883;48.818;9.114;2024-01-25T01:32:17;21.20;;;3.75;;
11653;SDS011;5883;48.818;9.114;2024-01-25T01:35:02;14.40;;;4.20;;
11653;SDS011;5883;48.818;9.114;2024-01-25T01:37:48;14.25;;;3.38;;
11653;SDS011;5883;48.818;9.114;2024-01-25T01:40:34;17.30;;;3.78;;
11653;SDS011;5883;48.818;9.114;2024-01-25T01:43:19;21.70;;;3.78;;
11653;SDS011;5883;48.818;9.114;2024-01-25T01:46:04;17.48;;;4.13;;
11653;SDS011;5883;48.818;9.114;2024-01-25T01:48:51;13.40;;;3.22;;
11653;SDS011;5883;48.818;9.114;2024-01-25T01:51:36;15.98;;;3.35;;
11653;SDS011;5883;48.818;9.114;2024-01-25T01:54:22;19.30;;;3.70;;
11653;SDS011;5883;48.818;9.114;2024-01-25T01:57:08;17.42;;;3.67;;
11653;SDS011;5883;48.818;9.114;2024-01-25T01:59:54;18.63;;;3.72;;
11653;SDS011;5883;48.818;9.114;2024-01-25T02:02:39;19.08;;;3.97;;
11653;SDS011;5883;48.818;9.114;2024-01-25T02:05:24;15.88;;;3.83;;
11653;SDS011;5883;48.818;9.114;2024-01-25T02:08:09;8.75;;;3.03;;
11653;SDS011;5883;48.818;9.114;2024-01-25T02:10:54;18.20;;;3.88;;
11653;SDS011;5883;48.818;9.114;2024-01-25T02:13:40;17.63;;;4.00;;
11653;SDS011;5883;48.818;9.114;2024-01-25T02:16:25;15.70;;;3.90;;
11653;SDS011;5883;48.818;9.114;2024-01-25T02:19:10;16.35;;;3.80;;
11653;SDS011;5883;48.818;9.114;2024-01-25T02:21:55;13.48;;;2.67;;
11653;SDS011;5883;48.818;9.114;2024-01-25T02:24:43;18.92;;;3.60;;
11653;SDS011;5883;48.818;9.114;2024-01-25T02:27:28;16.05;;;3.28;;
11653;SDS011;5883;48.818;9.114;2024-01-25T02:30:13;15.25;;;3.58;;
11653;SDS011;5883;48.818;9.114;2024-01-25T02:32:58;13.23;;;3.85;;
11653;SDS011;5883;48.818;9.114;2024-01-25T02:35:43;13.65;;;2.80;;
11653;SDS011;5883;48.818;9.114;2024-01-25T02:38:28;10.95;;;3.40;;
11653;SDS011;5883;48.818;9.114;2024-01-25T02:41:14;15.75;;;3.92;;
11653;SDS011;5883;48.818;9.114;2024-01-25T02:43:59;21.17;;;4.57;;
11653;SDS011;5883;48.818;9.114;2024-01-25T02:46:44;15.57;;;3.53;;
11653;SDS011;5883;48.818;9.114;2024-01-25T02:49:30;16.42;;;3.63;;
11653;SDS011;5883;48.818;9.114;2024-01-25T02:52:15;16.98;;;3.58;;
11653;SDS011;5883;48.818;9.114;2024-01-25T02:55:00;21.27;;;4.50;;
11653;SDS011;5883;48.818;9.114;2024-01-25T02:57:47;11.75;;;2.90;;
11653;SDS011;5883;48.818;9.114;2024-01-25T03:00:32;15.32;;;3.65;;
11653;SDS011;5883;48.818;9.114;2024-01-25T03:03:16;13.38;;;3.15;;
11653;SDS011;5883;48.818;9.114;2024-01-25T03:06:02;18.10;;;3.83;;
11653;SDS011;5883;48.818;9.114;2024-01-25T03:08:47;17.23;;;3.42;;
11653;SDS011;5883;48.818;9.114;2024-01-25T03:11:32;13.70;;;3.50;;
11653;SDS011;5883;48.818;9.114;2024-01-25T03:14:18;18.25;;;3.97;;
11653;SDS011;5883;48.818;9.114;2024-01-25T03:17:03;14.40;;;3.42;;
11653;SDS011;5883;48.818;9.114;2024-01-25T03:19:48;16.63;;;2.90;;
11653;SDS011;5883;48.818;9.114;2024-01-25T03:22:33;14.82;;;3.50;;
11653;SDS011;5883;48.818;9.114;2024-01-25T03:25:17;14.27;;;3.75;;
11653;SDS011;5883;48.818;9.114;2024-01-25T03:28:03;21.00;;;3.55;;
11653;SDS011;5883;48.818;9.114;2024-01-25T03:30:51;12.63;;;3.42;;
11653;SDS011;5883;48.818;9.114;2024-01-25T03:33:36;14.05;;;3.55;;
11653;SDS011;5883;48.818;9.114;2024-01-25T03:36:21;14.63;;;3.58;;
11653;SDS011;5883;48.818;9.114;2024-01-25T03:39:06;15.40;;;4.25;;
11653;SDS011;5883;48.818;9.114;2024-01-25T03:41:52;17.77;;;3.35;;
11653;SDS011;5883;48.818;9.114;2024-01-25T03:44:36;16.48;;;3.60;;
11653;SDS011;5883;48.818;9.114;2024-01-25T03:47:23;12.68;;;3.80;;
11653;SDS011;5883;48.818;9.114;2024-01-25T03:50:09;17.30;;;3.45;;
11653;SDS011;5883;48.818;9.114;2024-01-25T03:52:54;16.20;;;3.38;;
11653;SDS011;5883;48.818;9.114;2024-01-25T03:55:39;13.02;;;3.40;;
11653;SDS011;5883;48.818;9.114;2024-01-25T03:58:25;11.30;;;3.55;;
11653;SDS011;5883;48.818;9.114;2024-01-25T04:01:10;16.63;;;3.67;;
11653;SDS011;5883;48.818;9.114;2024-01-25T04:03:56;23.52;;;3.97;;
11653;SDS011;5883;48.818;9.114;2024-01-25T04:06:41;16.35;;;3.28;;
11653;SDS011;5883;48.818;9.114;2024-01-25T04:09:27;11.57;;;3.35;;
11653;SDS011;5883;48.818;9.114;2024-01-25T04:12:12;13.38;;;4.00;;
11653;SDS011;5883;48.818;9.114;2024-01-25T04:14:57;16.67;;;3.80;;
11653;SDS011;5883;48.818;9.114;2024-01-25T04:17:42;12.32;;;3.50;;
11653;SDS011;5883;48.818;9.114;2024-01-25T04:20:28;16.17;;;3.95;;
11653;SDS011;5883;48.818;9.114;2024-01-25T04:23:13;14.20;;;3.28;;
11653;SDS011;5883;48.818;9.114;2024-01-25T04:25:58;17.38;;;3.45;;
11653;SDS011;5883;48.818;9.114;2024-01-25T04:28:43;12.60;;;3.17;;
11653;SDS011;5883;48.818;9.114;2024-01-25T04:31:28;15.63;;;3.72;;
11653;SDS011;5883;48.818;9.114;2024-01-25T04:34:13;14.90;;;3.65;;
11653;SDS011;5883;48.818;9.114;2024-01-25T04:37:00;21.58;;;4.07;;
11653;SDS011;5883;48.818;9.114;2024-01-25T04:39:45;15.00;;;3.42;;
11653;SDS011;5883;48.818;9.114;2024-01-25T04:42:30;12.77;;;3.13;;
11653;SDS011;5883;48.818;9.114;2024-01-25T04:45:15;17.55;;;3.88;;
11653;SDS011;5883;48.818;9.114;2024-01-25T04:48:00;13.13;;;4.07;;
11653;SDS011;5883;48.818;9.114;2024-01-25T04:50:44;18.42;;;3.53;;
11653;SDS011;5883;48.818;9.114;2024-01-25T04:53:31;13.45;;;3.42;;
11653;SDS011;5883;48.818;9.114;2024-01-25T04:56:16;16.35;;;4.03;;
11653;SDS011;5883;48.818;9.114;2024-01-25T04:59:01;13.63;;;3.63;;
11653;SDS011;5883;48.818;9.114;2024-01-25T05:01:46;13.55;;;3.55;;
11653;SDS011;5883;48.818;9.114;2024-01-25T05:04:31;22.35;;;4.38;;
11653;SDS011;5883;48.818;9.114;2024-01-25T05:07:18;14.55;;;3.97;;
11653;SDS011;5883;48.818;9.114;2024-01-25T05:10:05;19.30;;;4.18;;
11653;SDS011;5883;48.818;9.114;2024-01-25T05:12:50;16.30;;;4.03;;
11653;SDS011;5883;48.818;9.114;2024-01-25T05:15:35;21.27;;;4.07;;
11653;SDS011;5883;48.818;9.114;2024-01-25T05:18:20;17.05;;;3.13;;
11653;SDS011;5883;48.818;9.114;2024-01-25T05:21:05;14.75;;;4.07;;
11653;SDS011;5883;48.818;9.114;2024-01-25T05:23:50;10.65;;;3.45;;
11653;SDS011;5883;48.818;9.114;2024-01-25T05:26:36;9.73;;;3.50;;
11653;SDS011;5883;48.818;9.114;2024-01-25T05:29:22;15.73;;;3.72;;
11653;SDS011;5883;48.818;9.114;2024-01-25T05:32:07;16.90;;;3.75;;
11653;SDS011;5883;48.818;9.114;2024-01-25T05:34:52;18.38;;;3.60;;
11653;SDS011;5883;48.818;9.114;2024-01-25T05:37:37;15.13;;;3.83;;
11653;SDS011;5883;48.818;9.114;2024-01-25T05:40:22;18.40;;;4.03;;
11653;SDS011;5883;48.818;9.114;2024-01-25T05:43:08;20.17;;;3.80;;
11653;SDS011;5883;48.818;9.114;2024-01-25T05:45:53;18.27;;;3.97;;
11653;SDS011;5883;48.818;9.114;2024-01-25T05:48:38;16.65;;;3.55;;
11653;SDS011;5883;48.818;9.114;2024-01-25T05:51:23;14.68;;;4.05;;
11653;SDS011;5883;48.818;9.114;2024-01-25T05:54:08;15.13;;;4.03;;
11653;SDS011;5883;48.818;9.114;2024-01-25T05:56:53;14.70;;;3.25;;
11653;SDS011;5883;48.818;9.114;2024-01-25T05:59:39;19.55;;;3.63;;
11653;SDS011;5883;48.818;9.114;2024-01-25T06:02:24;15.00;;;3.28;;
11653;SDS011;5883;48.818;9.114;2024-01-25T06:05:09;17.00;;;4.57;;
11653;SDS011;5883;48.818;9.114;2024-01-25T06:07:55;15.00;;;3.67;;
11653;SDS011;5883;48.818;9.114;2024-01-25T06:10:40;14.60;;;3.80;;
11653;SDS011;5883;48.818;9.114;2024-01-25T06:13:25;23.95;;;4.50;;
11653;SDS011;5883;48.818;9.114;2024-01-25T06:16:11;17.55;;;4.10;;
11653;SDS011;5883;48.818;9.114;2024-01-25T06:18:56;25.70;;;3.90;;
11653;SDS011;5883;48.818;9.114;2024-01-25T06:21:42;14.10;;;3.88;;
11653;SDS011;5883;48.818;9.114;2024-01-25T06:24:27;16.60;;;3.90;;
11653;SDS011;5883;48.818;9.114;2024-01-25T06:27:12;10.32;;;4.18;;
11653;SDS011;5883;48.818;9.114;2024-01-25T06:29:57;19.50;;;3.58;;
11653;SDS011;5883;48.818;9.114;2024-01-25T06:32:43;23.55;;;4.35;;
11653;SDS011;5883;48.818;9.114;2024-01-25T06:35:28;17.33;;;4.05;;
11653;SDS011;5883;48.818;9.114;2024-01-25T06:38:13;12.23;;;3.17;;
11653;SDS011;5883;48.818;9.114;2024-01-25T06:40:58;21.60;;;4.03;;
11653;SDS011;5883;48.818;9.114;2024-01-25T06:43:43;16.20;;;4.25;;
11653;SDS011;5883;48.818;9.114;2024-01-25T06:46:28;16.02;;;3.90;;
11653;SDS011;5883;48.818;9.114;2024-01-25T06:49:15;12.27;;;3.80;;
11653;SDS011;5883;48.818;9.114;2024-01-25T06:52:00;15.77;;;4.55;;
11653;SDS011;5883;48.818;9.114;2024-01-25T06:54:45;14.52;;;3.88;;
11653;SDS011;5883;48.818;9.114;2024-01-25T06:57:30;17.60;;;4.28;;
11653;SDS011;5883;48.818;9.114;2024-01-25T07:00:15;17.45;;;3.67;;
11653;SDS011;5883;48.818;9.114;2024-01-25T07:03:00;19.60;;;4.32;;
11653;SDS011;5883;48.818;9.114;2024-01-25T07:05:46;18.42;;;4.40;;
11653;SDS011;5883;48.818;9.114;2024-01-25T07:08:31;16.27;;;4.10;;
11653;SDS011;5883;48.818;9.114;2024-01-25T07:11:16;16.70;;;4.47;;
11653;SDS011;5883;48.818;9.114;2024-01-25T07:14:01;15.43;;;4.30;;
11653;SDS011;5883;48.818;9.114;2024-01-25T07:16:46;11.05;;;3.88;;
11653;SDS011;5883;48.818;9.114;2024-01-25T07:19:31;16.73;;;3.78;;
11653;SDS011;5883;48.818;9.114;2024-01-25T07:22:17;19.17;;;4.75;;
11653;SDS011;5883;48.818;9.114;2024-01-25T07:25:02;20.30;;;4.13;;
11653;SDS011;5883;48.818;9.114;2024-01-25T07:27:48;19.67;;;4.40;;
11653;SDS011;5883;48.818;9.114;2024-01-25T07:30:34;22.67;;;4.93;;
11653;SDS011;5883;48.818;9.114;2024-01-25T07:33:19;13.27;;;3.65;;
11653;SDS011;5883;48.818;9.114;2024-01-25T07:36:04;25.27;;;4.90;;
11653;SDS011;5883;48.818;9.114;2024-01-25T07:38:50;13.65;;;3.45;;
11653;SDS011;5883;48.818;9.114;2024-01-25T07:41:35;16.58;;;3.67;;
11653;SDS011;5883;48.818;9.114;2024-01-25T07:44:20;17.63;;;3.80;;
11653;SDS011;5883;48.818;9.114;2024-01-25T07:47:05;12.80;;;4.70;;
11653;SDS011;5883;48.818;9.114;2024-01-25T07:49:51;16.83;;;4.10;;
11653;SDS011;5883;48.818;9.114;2024-01-25T07:52:36;18.42;;;4.55;;
11653;SDS011;5883;48.818;9.114;2024-01-25T07:55:22;16.13;;;4.60;;
11653;SDS011;5883;48.818;9.114;2024-01-25T07:58:07;19.45;;;4.72;;
11653;SDS011;5883;48.818;9.114;2024-01-25T08:00:52;14.55;;;4.15;;
11653;SDS011;5883;48.818;9.114;2024-01-25T08:03:37;16.13;;;4.63;;
11653;SDS011;5883;48.818;9.114;2024-01-25T08:06:22;23.30;;;4.45;;
11653;SDS011;5883;48.818;9.114;2024-01-25T08:09:07;17.90;;;4.72;;
11653;SDS011;5883;48.818;9.114;2024-01-25T08:11:54;16.17;;;5.22;;
11653;SDS011;5883;48.818;9.114;2024-01-25T08:14:39;17.02;;;4.15;;
11653;SDS011;5883;48.818;9.114;2024-01-25T08:17:26;19.02;;;4.20;;
11653;SDS011;5883;48.818;9.114;2024-01-25T08:20:11;21.10;;;4.28;;
11653;SDS011;5883;48.818;9.114;2024-01-25T08:22:57;18.20;;;3.90;;
11653;SDS011;5883;48.818;9.114;2024-01-25T08:25:42;15.52;;;4.28;;
11653;SDS011;5883;48.818;9.114;2024-01-25T08:28:29;21.88;;;4.63;;
11653;SDS011;5883;48.818;9.114;2024-01-25T08:31:14;19.67;;;4.40;;
11653;SDS011;5883;48.818;9.114;2024-01-25T08:33:58;16.77;;;4.15;;
11653;SDS011;5883;48.818;9.114;2024-01-25T08:36:43;21.67;;;4.80;;
11653;SDS011;5883;48.818;9.114;2024-01-25T08:39:28;17.50;;;4.30;;
11653;SDS011;5883;48.818;9.114;2024-01-25T08:42:13;12.05;;;3.60;;
11653;SDS011;5883;48.818;9.114;2024-01-25T08:45:00;14.93;;;4.03;;
11653;SDS011;5883;48.818;9.114;2024-01-25T08:47:45;16.45;;;4.45;;
11653;SDS011;5883;48.818;9.114;2024-01-25T08:50:30;12.02;;;3.95;;
11653;SDS011;5883;48.818;9.114;2024-01-25T08:53:17;16.13;;;3.92;;
11653;SDS011;5883;48.818;9.114;2024-01-25T08:56:02;14.63;;;3.40;;
11653;SDS011;5883;48.818;9.114;2024-01-25T08:58:48;13.73;;;3.45;;
11653;SDS011;5883;48.818;9.114;2024-01-25T09:01:35;14.95;;;4.57;;
11653;SDS011;5883;48.818;9.114;2024-01-25T09:04:20;17.23;;;4.40;;
11653;SDS011;5883;48.818;9.114;2024-01-25T09:07:05;11.98;;;3.72;;
11653;SDS011;5883;48.818;9.114;2024-01-25T09:09:50;18.35;;;5.30;;
11653;SDS011;5883;48.818;9.114;2024-01-25T09:12:35;16.15;;;3.85;;
11653;SDS011;5883;48.818;9.114;2024-01-25T09:15:20;16.13;;;3.58;;
11653;SDS011;5883;48.818;9.114;2024-01-25T09:18:06;21.10;;;4.10;;
11653;SDS011;5883;48.818;9.114;2024-01-25T09:20:51;16.45;;;4.05;;
11653;SDS011;5883;48.818;9.114;2024-01-25T09:23:36;17.67;;;4.00;;
11653;SDS011;5883;48.818;9.114;2024-01-25T09:26:21;13.10;;;3.72;;
11653;SDS011;5883;48.818;9.114;2024-01-25T09:29:07;16.80;;;4.07;;
11653;SDS011;5883;48.818;9.114;2024-01-25T09:31:51;15.43;;;3.25;;
11653;SDS011;5883;48.818;9.114;2024-01-25T09:34:38;14.95;;;3.25;;
11653;SDS011;5883;48.818;9.114;2024-01-25T09:37:23;15.48;;;3.70;;
11653;SDS011;5883;48.818;9.114;2024-01-25T09:40:08;13.85;;;3.03;;
11653;SDS011;5883;48.818;9.114;2024-01-25T09:42:54;9.85;;;3.42;;
11653;SDS011;5883;48.818;9.114;2024-01-25T09:45:40;11.30;;;3.03;;
11653;SDS011;5883;48.818;9.114;2024-01-25T09:48:26;13.75;;;3.55;;
11653;SDS011;5883;48.818;9.114;2024-01-25T09:51:13;12.45;;;3.88;;
11653;SDS011;5883;48.818;9.114;2024-01-25T09:53:58;16.15;;;3.20;;
11653;SDS011;5883;48.818;9.114;2024-01-25T09:56:44;11.80;;;3.80;;
11653;SDS011;5883;48.818;9.114;2024-01-25T09:59:29;11.32;;;3.15;;
11653;SDS011;5883;48.818;9.114;2024-01-25T10:02:14;12.82;;;3.30;;
11653;SDS011;5883;48.818;9.114;2024-01-25T10:04:59;21.48;;;3.30;;
11653;SDS011;5883;48.818;9.114;2024-01-25T10:07:45;17.92;;;3.40;;
11653;SDS011;5883;48.818;9.114;2024-01-25T10:10:32;13.90;;;3.70;;
11653;SDS011;5883;48.818;9.114;2024-01-25T10:13:17;18.08;;;3.72;;
11653;SDS011;5883;48.818;9.114;2024-01-25T10:16:02;14.40;;;3.17;;
11653;SDS011;5883;48.818;9.114;2024-01-25T10:18:49;10.73;;;3.28;;
11653;SDS011;5883;48.818;9.114;2024-01-25T10:21:35;17.98;;;3.72;;
11653;SDS011;5883;48.818;9.114;2024-01-25T10:24:22;13.45;;;4.95;;
11653;SDS011;5883;48.818;9.114;2024-01-25T10:27:07;17.02;;;3.83;;
11653;SDS011;5883;48.818;9.114;2024-01-25T10:29:52;16.60;;;3.45;;
11653;SDS011;5883;48.818;9.114;2024-01-25T10:32:37;14.13;;;3.15;;
11653;SDS011;5883;48.818;9.114;2024-01-25T10:35:24;17.05;;;3.88;;
11653;SDS011;5883;48.818;9.114;2024-01-25T10:38:09;14.45;;;3.35;;
11653;SDS011;5883;48.818;9.114;2024-01-25T10:40:56;19.63;;;3.95;;
11653;SDS011;5883;48.818;9.114;2024-01-25T10:43:42;9.10;;;2.92;;
11653;SDS011;5883;48.818;9.114;2024-01-25T10:46:28;11.32;;;3.17;;
11653;SDS011;5883;48.818;9.114;2024-01-25T10:49:13;25.67;;;4.47;;
11653;SDS011;5883;48.818;9.114;2024-01-25T10:51:59;13.57;;;3.40;;
11653;SDS011;5883;48.818;9.114;2024-01-25T10:54:44;14.23;;;3.45;;
11653;SDS011;5883;48.818;9.114;2024-01-25T10:57:35;10.98;;;2.95;;
11653;SDS011;5883;48.818;9.114;2024-01-25T11:00:21;14.70;;;2.92;;
11653;SDS011;5883;48.818;9.114;2024-01-25T11:03:06;16.45;;;3.80;;
11653;SDS011;5883;48.818;9.114;2024-01-25T11:05:52;9.90;;;3.08;;
11653;SDS011;5883;48.818;9.114;2024-01-25T11:08:37;6.88;;;2.72;;
11653;SDS011;5883;48.818;9.114;2024-01-25T11:11:22;11.13;;;3.08;;
11653;SDS011;5883;48.818;9.114;2024-01-25T11:14:12;10.52;;;2.85;;
11653;SDS011;5883;48.818;9.114;2024-01-25T11:16:58;13.90;;;2.65;;
11653;SDS011;5883;48.818;9.114;2024-01-25T11:19:43;11.80;;;2.90;;
11653;SDS011;5883;48.818;9.114;2024-01-25T11:22:34;8.73;;;2.80;;
11653;SDS011;5883;48.818;9.114;2024-01-25T11:25:20;8.85;;;2.80;;
11653;SDS011;5883;48.818;9.114;2024-01-25T11:28:05;8.55;;;2.40;;
11653;SDS011;5883;48.818;9.114;2024-01-25T11:30:53;10.68;;;3.10;;
11653;SDS011;5883;48.818;9.114;2024-01-25T11:33:38;7.10;;;2.40;;
11653;SDS011;5883;48.818;9.114;2024-01-25T11:36:23;10.52;;;3.08;;
11653;SDS011;5883;48.818;9.114;2024-01-25T11:39:09;10.00;;;3.17;;
11653;SDS011;5883;48.818;9.114;2024-01-25T11:41:54;9.82;;;2.83;;
11653;SDS011;5883;48.818;9.114;2024-01-25T11:44:40;15.50;;;3.45;;
11653;SDS011;5883;48.818;9.114;2024-01-25T11:47:26;7.13;;;2.75;;
11653;SDS011;5883;48.818;9.114;2024-01-25T11:50:12;12.77;;;3.10;;
11653;SDS011;5883;48.818;9.114;2024-01-25T11:52:57;9.27;;;3.08;;
11653;SDS011;5883;48.818;9.114;2024-01-25T11:55:42;7.05;;;2.75;;
11653;SDS011;5883;48.818;9.114;2024-01-25T11:58:27;7.15;;;2.47;;
11653;SDS011;5883;48.818;9.114;2024-01-25T12:01:12;14.68;;;3.20;;
11653;SDS011;5883;48.818;9.114;2024-01-25T12:03:59;8.25;;;2.55;;
11653;SDS011;5883;48.818;9.114;2024-01-25T12:06:45;7.57;;;2.30;;
11653;SDS011;5883;48.818;9.114;2024-01-25T12:09:32;9.05;;;2.95;;
11653;SDS011;5883;48.818;9.114;2024-01-25T12:12:17;15.05;;;2.95;;
11653;SDS011;5883;48.818;9.114;2024-01-25T12:15:03;7.20;;;2.60;;
11653;SDS011;5883;48.818;9.114;2024-01-25T12:17:48;11.50;;;2.50;;
11653;SDS011;5883;48.818;9.114;2024-01-25T12:20:36;9.80;;;2.70;;
11653;SDS011;5883;48.818;9.114;2024-01-25T12:23:21;6.97;;;2.25;;
11653;SDS011;5883;48.818;9.114;2024-01-25T12:26:06;8.63;;;2.40;;
11653;SDS011;5883;48.818;9.114;2024-01-25T12:28:51;9.68;;;2.90;;
11653;SDS011;5883;48.818;9.114;2024-01-25T12:31:36;8.95;;;2.35;;
11653;SDS011;5883;48.818;9.114;2024-01-25T12:34:21;11.25;;;2.78;;
11653;SDS011;5883;48.818;9.114;2024-01-25T12:37:07;8.40;;;2.70;;
11653;SDS011;5883;48.818;9.114;2024-01-25T12:39:53;10.55;;;2.85;;
11653;SDS011;5883;48.818;9.114;2024-01-25T12:42:38;13.65;;;3.28;;
11653;SDS011;5883;48.818;9.114;2024-01-25T12:45:23;9.63;;;2.83;;
11653;SDS011;5883;48.818;9.114;2024-01-25T12:48:08;8.27;;;2.40;;
11653;SDS011;5883;48.818;9.114;2024-01-25T12:50:54;10.60;;;3.40;;
11653;SDS011;5883;48.818;9.114;2024-01-25T12:53:40;11.65;;;2.40;;
11653;SDS011;5883;48.818;9.114;2024-01-25T12:56:25;9.70;;;2.97;;
11653;SDS011;5883;48.818;9.114;2024-01-25T12:59:10;10.55;;;2.60;;
11653;SDS011;5883;48.818;9.114;2024-01-25T13:01:55;12.90;;;3.15;;
11653;SDS011;5883;48.818;9.114;2024-01-25T13:04:40;8.32;;;2.75;;
11653;SDS011;5883;48.818;9.114;2024-01-25T13:07:25;10.13;;;2.92;;
11653;SDS011;5883;48.818;9.114;2024-01-25T13:10:12;13.10;;;3.22;;
11653;SDS011;5883;48.818;9.114;2024-01-25T13:12:57;7.93;;;2.30;;
11653;SDS011;5883;48.818;9.114;2024-01-25T13:15:41;9.40;;;2.58;;
11653;SDS011;5883;48.818;9.114;2024-01-25T13:18:26;7.03;;;2.50;;
11653;SDS011;5883;48.818;9.114;2024-01-25T13:21:11;11.07;;;2.90;;
11653;SDS011;5883;48.818;9.114;2024-01-25T13:23:56;10.07;;;2.80;;
11653;SDS011;5883;48.818;9.114;2024-01-25T13:26:43;8.60;;;2.45;;
11653;SDS011;5883;48.818;9.114;2024-01-25T13:29:28;8.25;;;2.38;;
11653;SDS011;5883;48.818;9.114;2024-01-25T13:32:13;7.55;;;2.53;;
11653;SDS011;5883;48.818;9.114;2024-01-25T13:34:58;8.35;;;2.78;;
11653;SDS011;5883;48.818;9.114;2024-01-25T13:37:43;9.82;;;2.78;;
11653;SDS011;5883;48.818;9.114;2024-01-25T13:40:28;11.18;;;3.08;;
11653;SDS011;5883;48.818;9.114;2024-01-25T13:43:14;9.48;;;2.58;;
11653;SDS011;5883;48.818;9.114;2024-01-25T13:46:00;12.75;;;2.85;;
11653;SDS011;5883;48.818;9.114;2024-01-25T13:48:45;7.57;;;2.40;;
11653;SDS011;5883;48.818;9.114;2024-01-25T13:51:30;6.40;;;2.10;;
11653;SDS011;5883;48.818;9.114;2024-01-25T13:54:15;7.05;;;2.20;;
11653;SDS011;5883;48.818;9.114;2024-01-25T13:57:00;8.10;;;2.05;;
11653;SDS011;5883;48.818;9.114;2024-01-25T13:59:47;6.40;;;2.25;;
11653;SDS011;5883;48.818;9.114;2024-01-25T14:02:32;6.82;;;2.10;;
11653;SDS011;5883;48.818;9.114;2024-01-25T14:05:17;13.45;;;2.53;;
11653;SDS011;5883;48.818;9.114;2024-01-25T14:08:02;7.15;;;2.83;;
11653;SDS011;5883;48.818;9.114;2024-01-25T14:10:47;6.78;;;2.40;;
11653;SDS011;5883;48.818;9.114;2024-01-25T14:13:32;12.07;;;2.20;;
11653;SDS011;5883;48.818;9.114;2024-01-25T14:16:19;5.57;;;2.30;;
11653;SDS011;5883;48.818;9.114;2024-01-25T14:19:04;9.00;;;2.53;;
11653;SDS011;5883;48.818;9.114;2024-01-25T14:21:48;12.02;;;2.80;;
11653;SDS011;5883;48.818;9.114;2024-01-25T14:24:34;12.00;;;2.67;;
11653;SDS011;5883;48.818;9.114;2024-01-25T14:27:19;9.57;;;2.85;;
11653;SDS011;5883;48.818;9.114;2024-01-25T14:30:04;10.00;;;2.80;;
11653;SDS011;5883;48.818;9.114;2024-01-25T14:32:51;11.57;;;2.90;;
11653;SDS011;5883;48.818;9.114;2024-01-25T14:35:37;8.05;;;2.40;;
11653;SDS011;5883;48.818;9.114;2024-01-25T14:38:22;11.00;;;2.47;;
11653;SDS011;5883;48.818;9.114;2024-01-25T14:41:07;7.50;;;2.80;;
11653;SDS011;5883;48.818;9.114;2024-01-25T14:43:52;8.95;;;2.30;;
11653;SDS011;5883;48.818;9.114;2024-01-25T14:46:37;8.90;;;3.10;;
11653;SDS011;5883;48.818;9.114;2024-01-25T14:49:24;7.82;;;2.72;;
11653;SDS011;5883;48.818;9.114;2024-01-25T14:52:09;8.27;;;2.38;;
11653;SDS011;5883;48.818;9.114;2024-01-25T14:54:54;8.63;;;3.00;;
11653;SDS011;5883;48.818;9.114;2024-01-25T14:57:39;13.52;;;3.17;;
11653;SDS011;5883;48.818;9.114;2024-01-25T15:00:24;6.50;;;2.40;;
11653;SDS011;5883;48.818;9.114;2024-01-25T15:03:09;8.50;;;2.63;;
11653;SDS011;5883;48.818;9.114;2024-01-25T15:05:55;10.23;;;2.90;;
11653;SDS011;5883;48.818;9.114;2024-01-25T15:08:41;9.15;;;2.58;;
11653;SDS011;5883;48.818;9.114;2024-01-25T15:11:26;9.27;;;2.47;;
11653;SDS011;5883;48.818;9.114;2024-01-25T15:14:12;13.63;;;2.83;;
11653;SDS011;5883;48.818;9.114;2024-01-25T15:16:57;11.18;;;2.85;;
11653;SDS011;5883;48.818;9.114;2024-01-25T15:19:42;10.90;;;2.88;;
11653;SDS011;5883;48.818;9.114;2024-01-25T15:22:29;10.63;;;2.47;;
11653;SDS011;5883;48.818;9.114;2024-01-25T15:25:15;10.20;;;3.17;;
11653;SDS011;5883;48.818;9.114;2024-01-25T15:28:00;8.52;;;2.42;;
11653;SDS011;5883;48.818;9.114;2024-01-25T15:30:45;8.38;;;2.63;;
11653;SDS011;5883;48.818;9.114;2024-01-25T15:33:30;12.55;;;2.65;;
11653;SDS011;5883;48.818;9.114;2024-01-25T15:36:16;6.00;;;2.40;;
11653;SDS011;5883;48.818;9.114;2024-01-25T15:39:05;7.63;;;2.53;;
11653;SDS011;5883;48.818;9.114;2024-01-25T15:41:51;7.13;;;2.40;;
11653;SDS011;5883;48.818;9.114;2024-01-25T15:44:36;9.60;;;2.35;;
11653;SDS011;5883;48.818;9.114;2024-01-25T15:47:22;13.35;;;2.53;;
11653;SDS011;5883;48.818;9.114;2024-01-25T15:50:07;10.48;;;2.90;;
11653;SDS011;5883;48.818;9.114;2024-01-25T15:52:52;9.40;;;2.80;;
11653;SDS011;5883;48.818;9.114;2024-01-25T15:55:39;8.05;;;2.80;;
11653;SDS011;5883;48.818;9.114;2024-01-25T15:58:25;9.23;;;2.38;;
11653;SDS011;5883;48.818;9.114;2024-01-25T16:01:10;9.05;;;2.75;;
11653;SDS011;5883;48.818;9.114;2024-01-25T16:03:54;10.52;;;2.88;;
11653;SDS011;5883;48.818;9.114;2024-01-25T16:06:39;7.15;;;2.15;;
11653;SDS011;5883;48.818;9.114;2024-01-25T16:09:24;7.32;;;2.20;;
11653;SDS011;5883;48.818;9.114;2024-01-25T16:12:11;8.10;;;2.30;;
11653;SDS011;5883;48.818;9.114;2024-01-25T16:14:56;6.50;;;2.80;;
11653;SDS011;5883;48.818;9.114;2024-01-25T16:17:42;8.77;;;2.38;;
11653;SDS011;5883;48.818;9.114;2024-01-25T16:20:27;8.43;;;2.20;;
11653;SDS011;5883;48.818;9.114;2024-01-25T16:23:12;7.20;;;2.78;;
11653;SDS011;5883;48.818;9.114;2024-01-25T16:25:57;6.95;;;2.67;;
11653;SDS011;5883;48.818;9.114;2024-01-25T16:28:44;6.78;;;2.55;;
11653;SDS011;5883;48.818;9.114;2024-01-25T16:31:28;6.68;;;2.55;;
11653;SDS011;5883;48.818;9.114;2024-01-25T16:34:14;7.68;;;2.28;;
11653;SDS011;5883;48.818;9.114;2024-01-25T16:36:59;8.25;;;3.00;;
11653;SDS011;5883;48.818;9.114;2024-01-25T16:39:44;9.75;;;2.75;;